sensor_id;sensor_type;location;lat;lon;timestamp;temperature;humidity
64652;HTU21D;51062;45.120;37.660;2024-02-21T00:02:13;2.43;70.58
64652;HTU21D;51062;45.120;37.660;2024-02-21T00:04:38;2.43;70.57
64652;HTU21D;51062;45.120;37.660;2024-02-21T00:07:04;2.43;70.58
64652;HTU21D;51062;45.120;37.660;2024-02-21T00:09:30;2.43;70.58
64652;HTU21D;51062;45.120;37.660;2024-02-21T00:11:56;2.41;70.53
64652;HTU21D;51062;45.120;37.660;2024-02-21T00:14:24;2.40;70.56
64652;HTU21D;51062;45.120;37.660;2024-02-21T00:16:50;2.39;70.55
64652;HTU21D;51062;45.120;37.660;2024-02-21T00:19:16;2.37;70.58
64652;HTU21D;51062;45.120;37.660;2024-02-21T00:21:42;2.36;70.61
64652;HTU21D;51062;45.120;37.660;2024-02-21T00:24:08;2.35;70.65
64652;HTU21D;51062;45.120;37.660;2024-02-21T00:26:34;2.35;70.66
64652;HTU21D;51062;45.120;37.660;2024-02-21T00:28:59;2.35;70.64
64652;HTU21D;51062;45.120;37.660;2024-02-21T00:31:25;2.32;70.58
64652;HTU21D;51062;45.120;37.660;2024-02-21T00:33:51;2.31;70.61
64652;HTU21D;51062;45.120;37.660;2024-02-21T00:36:17;2.30;70.64
64652;HTU21D;51062;45.120;37.660;2024-02-21T00:38:43;2.29;70.66
64652;HTU21D;51062;45.120;37.660;2024-02-21T00:41:10;2.28;70.66
64652;HTU21D;51062;45.120;37.660;2024-02-21T00:43:36;2.27;70.78
64652;HTU21D;51062;45.120;37.660;2024-02-21T00:46:02;2.27;70.83
64652;HTU21D;51062;45.120;37.660;2024-02-21T00:48:28;2.27;70.83
64652;HTU21D;51062;45.120;37.660;2024-02-21T00:50:54;2.26;70.81
64652;HTU21D;51062;45.120;37.660;2024-02-21T00:53:20;2.27;70.81
64652;HTU21D;51062;45.120;37.660;2024-02-21T00:55:45;2.29;70.84
64652;HTU21D;51062;45.120;37.660;2024-02-21T00:58:11;2.30;70.83
64652;HTU21D;51062;45.120;37.660;2024-02-21T01:00:37;2.31;70.81
64652;HTU21D;51062;45.120;37.660;2024-02-21T01:03:03;2.30;70.77
64652;HTU21D;51062;45.120;37.660;2024-02-21T01:05:29;2.29;70.77
64652;HTU21D;51062;45.120;37.660;2024-02-21T01:07:55;2.28;70.79
64652;HTU21D;51062;45.120;37.660;2024-02-21T01:10:21;2.27;70.84
64652;HTU21D;51062;45.120;37.660;2024-02-21T01:12:48;2.27;70.87
64652;HTU21D;51062;45.120;37.660;2024-02-21T01:15:14;2.28;70.88
64652;HTU21D;51062;45.120;37.660;2024-02-21T01:17:40;2.27;70.91
64652;HTU21D;51062;45.120;37.660;2024-02-21T01:20:06;2.28;70.89
64652;HTU21D;51062;45.120;37.660;2024-02-21T01:22:32;2.27;70.87
64652;HTU21D;51062;45.120;37.660;2024-02-21T01:24:58;2.28;70.87
64652;HTU21D;51062;45.120;37.660;2024-02-21T01:27:24;2.26;70.85
64652;HTU21D;51062;45.120;37.660;2024-02-21T01:29:50;2.22;70.84
64652;HTU21D;51062;45.120;37.660;2024-02-21T01:32:16;2.14;70.85
64652;HTU21D;51062;45.120;37.660;2024-02-21T01:34:42;2.07;70.84
64652;HTU21D;51062;45.120;37.660;2024-02-21T01:37:08;1.97;70.79
64652;HTU21D;51062;45.120;37.660;2024-02-21T01:39:33;1.85;70.78
64652;HTU21D;51062;45.120;37.660;2024-02-21T01:41:59;1.73;70.82
64652;HTU21D;51062;45.120;37.660;2024-02-21T01:44:25;1.61;70.94
64652;HTU21D;51062;45.120;37.660;2024-02-21T01:46:52;1.50;71.03
64652;HTU21D;51062;45.120;37.660;2024-02-21T01:49:19;1.38;71.12
64652;HTU21D;51062;45.120;37.660;2024-02-21T01:51:45;1.29;71.21
64652;HTU21D;51062;45.120;37.660;2024-02-21T01:54:11;1.21;71.28
64652;HTU21D;51062;45.120;37.660;2024-02-21T01:56:38;1.13;71.37
64652;HTU21D;51062;45.120;37.660;2024-02-21T01:59:04;1.07;71.50
64652;HTU21D;51062;45.120;37.660;2024-02-21T02:01:30;1.02;71.56
64652;HTU21D;51062;45.120;37.660;2024-02-21T02:03:56;0.96;71.66
64652;HTU21D;51062;45.120;37.660;2024-02-21T02:06:22;0.91;71.77
64652;HTU21D;51062;45.120;37.660;2024-02-21T02:08:48;0.87;71.92
64652;HTU21D;51062;45.120;37.660;2024-02-21T02:11:14;0.83;72.07
64652;HTU21D;51062;45.120;37.660;2024-02-21T02:13:40;0.83;72.18
64652;HTU21D;51062;45.120;37.660;2024-02-21T02:16:06;0.87;72.17
64652;HTU21D;51062;45.120;37.660;2024-02-21T02:18:32;0.93;72.11
64652;HTU21D;51062;45.120;37.660;2024-02-21T02:20:58;0.96;72.03
64652;HTU21D;51062;45.120;37.660;2024-02-21T02:23:31;0.95;71.92
64652;HTU21D;51062;45.120;37.660;2024-02-21T02:25:57;0.94;71.80
64652;HTU21D;51062;45.120;37.660;2024-02-21T02:28:23;0.92;71.74
64652;HTU21D;51062;45.120;37.660;2024-02-21T02:30:50;0.88;71.79
64652;HTU21D;51062;45.120;37.660;2024-02-21T02:33:16;0.86;71.90
64652;HTU21D;51062;45.120;37.660;2024-02-21T02:35:44;0.86;71.96
64652;HTU21D;51062;45.120;37.660;2024-02-21T02:38:11;0.87;72.00
64652;HTU21D;51062;45.120;37.660;2024-02-21T02:40:40;0.89;71.95
64652;HTU21D;51062;45.120;37.660;2024-02-21T02:43:06;0.87;71.84
64652;HTU21D;51062;45.120;37.660;2024-02-21T02:45:32;0.81;71.79
64652;HTU21D;51062;45.120;37.660;2024-02-21T02:47:59;0.72;71.81
64652;HTU21D;51062;45.120;37.660;2024-02-21T02:50:25;0.66;71.90
64652;HTU21D;51062;45.120;37.660;2024-02-21T02:52:52;0.61;71.98
64652;HTU21D;51062;45.120;37.660;2024-02-21T02:55:18;0.60;72.07
64652;HTU21D;51062;45.120;37.660;2024-02-21T02:57:44;0.62;72.22
64652;HTU21D;51062;45.120;37.660;2024-02-21T03:00:10;0.65;72.34
64652;HTU21D;51062;45.120;37.660;2024-02-21T03:02:38;0.71;72.38
64652;HTU21D;51062;45.120;37.660;2024-02-21T03:05:11;0.77;72.43
64652;HTU21D;51062;45.120;37.660;2024-02-21T03:07:38;0.83;72.49
64652;HTU21D;51062;45.120;37.660;2024-02-21T03:10:04;0.91;72.47
64652;HTU21D;51062;45.120;37.660;2024-02-21T03:12:30;0.94;72.43
64652;HTU21D;51062;45.120;37.660;2024-02-21T03:14:56;1.01;72.43
64652;HTU21D;51062;45.120;37.660;2024-02-21T03:17:22;1.02;72.41
64652;HTU21D;51062;45.120;37.660;2024-02-21T03:19:48;1.03;72.41
64652;HTU21D;51062;45.120;37.660;2024-02-21T03:22:15;1.05;72.43
64652;HTU21D;51062;45.120;37.660;2024-02-21T03:24:42;1.11;72.42
64652;HTU21D;51062;45.120;37.660;2024-02-21T03:27:08;1.12;72.40
64652;HTU21D;51062;45.120;37.660;2024-02-21T03:29:34;1.13;72.45
64652;HTU21D;51062;45.120;37.660;2024-02-21T03:32:00;1.13;72.51
64652;HTU21D;51062;45.120;37.660;2024-02-21T03:34:26;1.14;72.58
64652;HTU21D;51062;45.120;37.660;2024-02-21T03:36:52;1.18;72.58
64652;HTU21D;51062;45.120;37.660;2024-02-21T03:39:17;1.21;72.58
64652;HTU21D;51062;45.120;37.660;2024-02-21T03:41:43;1.25;72.61
64652;HTU21D;51062;45.120;37.660;2024-02-21T03:44:09;1.29;72.56
64652;HTU21D;51062;45.120;37.660;2024-02-21T03:46:35;1.34;72.50
64652;HTU21D;51062;45.120;37.660;2024-02-21T03:49:01;1.34;72.46
64652;HTU21D;51062;45.120;37.660;2024-02-21T03:51:27;1.35;72.48
64652;HTU21D;51062;45.120;37.660;2024-02-21T03:53:53;1.35;72.46
64652;HTU21D;51062;45.120;37.660;2024-02-21T03:56:19;1.36;72.46
64652;HTU21D;51062;45.120;37.660;2024-02-21T03:58:45;1.36;72.51
64652;HTU21D;51062;45.120;37.660;2024-02-21T04:01:10;1.36;72.61
64652;HTU21D;51062;45.120;37.660;2024-02-21T04:03:37;1.35;72.71
64652;HTU21D;51062;45.120;37.660;2024-02-21T04:06:03;1.37;72.78
64652;HTU21D;51062;45.120;37.660;2024-02-21T04:08:29;1.38;72.79
64652;HTU21D;51062;45.120;37.660;2024-02-21T04:10:55;1.41;72.77
64652;HTU21D;51062;45.120;37.660;2024-02-21T04:13:21;1.47;72.75
64652;HTU21D;51062;45.120;37.660;2024-02-21T04:15:48;1.48;72.77
64652;HTU21D;51062;45.120;37.660;2024-02-21T04:18:14;1.51;72.75
64652;HTU21D;51062;45.120;37.660;2024-02-21T04:20:40;1.53;72.74
64652;HTU21D;51062;45.120;37.660;2024-02-21T04:23:06;1.56;72.69
64652;HTU21D;51062;45.120;37.660;2024-02-21T04:25:32;1.58;72.71
64652;HTU21D;51062;45.120;37.660;2024-02-21T04:27:58;1.60;72.67
64652;HTU21D;51062;45.120;37.660;2024-02-21T04:30:24;1.61;72.69
64652;HTU21D;51062;45.120;37.660;2024-02-21T04:32:50;1.60;72.70
64652;HTU21D;51062;45.120;37.660;2024-02-21T04:35:16;1.56;72.71
64652;HTU21D;51062;45.120;37.660;2024-02-21T04:37:42;1.55;72.81
64652;HTU21D;51062;45.120;37.660;2024-02-21T04:40:08;1.54;72.90
64652;HTU21D;51062;45.120;37.660;2024-02-21T04:42:34;1.54;72.94
64652;HTU21D;51062;45.120;37.660;2024-02-21T04:45:00;1.53;72.96
64652;HTU21D;51062;45.120;37.660;2024-02-21T04:47:27;1.54;72.98
64652;HTU21D;51062;45.120;37.660;2024-02-21T04:49:53;1.56;73.09
64652;HTU21D;51062;45.120;37.660;2024-02-21T04:52:19;1.58;73.09
64652;HTU21D;51062;45.120;37.660;2024-02-21T04:54:45;1.60;73.15
64652;HTU21D;51062;45.120;37.660;2024-02-21T04:57:11;1.62;73.17
64652;HTU21D;51062;45.120;37.660;2024-02-21T04:59:37;1.68;73.15
64652;HTU21D;51062;45.120;37.660;2024-02-21T05:02:02;1.72;73.15
64652;HTU21D;51062;45.120;37.660;2024-02-21T05:04:29;1.80;73.13
64652;HTU21D;51062;45.120;37.660;2024-02-21T05:06:54;1.90;73.06
64652;HTU21D;51062;45.120;37.660;2024-02-21T05:09:20;1.98;72.96
64652;HTU21D;51062;45.120;37.660;2024-02-21T05:11:46;2.06;72.81
64652;HTU21D;51062;45.120;37.660;2024-02-21T05:14:13;2.11;72.75
64652;HTU21D;51062;45.120;37.660;2024-02-21T05:16:39;2.21;72.66
64652;HTU21D;51062;45.120;37.660;2024-02-21T05:19:05;2.26;72.52
64652;HTU21D;51062;45.120;37.660;2024-02-21T05:21:31;2.32;72.41
64652;HTU21D;51062;45.120;37.660;2024-02-21T05:23:57;2.37;72.33
64652;HTU21D;51062;45.120;37.660;2024-02-21T05:26:26;2.38;72.30
64652;HTU21D;51062;45.120;37.660;2024-02-21T05:28:52;2.43;72.38
64652;HTU21D;51062;45.120;37.660;2024-02-21T05:31:19;2.47;72.35
64652;HTU21D;51062;45.120;37.660;2024-02-21T05:33:45;2.50;72.31
64652;HTU21D;51062;45.120;37.660;2024-02-21T05:36:14;2.56;72.31
64652;HTU21D;51062;45.120;37.660;2024-02-21T05:38:40;2.61;72.25
64652;HTU21D;51062;45.120;37.660;2024-02-21T05:41:06;2.67;72.25
64652;HTU21D;51062;45.120;37.660;2024-02-21T05:43:32;2.69;72.22
64652;HTU21D;51062;45.120;37.660;2024-02-21T05:45:58;2.71;72.22
64652;HTU21D;51062;45.120;37.660;2024-02-21T05:48:24;2.75;72.29
64652;HTU21D;51062;45.120;37.660;2024-02-21T05:50:50;2.80;72.32
64652;HTU21D;51062;45.120;37.660;2024-02-21T05:53:16;2.86;72.25
64652;HTU21D;51062;45.120;37.660;2024-02-21T05:55:42;2.88;72.19
64652;HTU21D;51062;45.120;37.660;2024-02-21T05:58:08;2.89;72.38
64652;HTU21D;51062;45.120;37.660;2024-02-21T06:00:39;3.04;72.70
64652;HTU21D;51062;45.120;37.660;2024-02-21T06:03:05;3.24;72.64
64652;HTU21D;51062;45.120;37.660;2024-02-21T06:05:31;3.42;72.50
64652;HTU21D;51062;45.120;37.660;2024-02-21T06:07:57;3.47;72.19
64652;HTU21D;51062;45.120;37.660;2024-02-21T06:10:23;3.42;72.07
64652;HTU21D;51062;45.120;37.660;2024-02-21T06:12:49;3.35;72.19
64652;HTU21D;51062;45.120;37.660;2024-02-21T06:15:15;3.33;72.41
64652;HTU21D;51062;45.120;37.660;2024-02-21T06:17:41;3.38;72.72
64652;HTU21D;51062;45.120;37.660;2024-02-21T06:20:07;3.50;72.80
64652;HTU21D;51062;45.120;37.660;2024-02-21T06:22:33;3.63;72.85
64652;HTU21D;51062;45.120;37.660;2024-02-21T06:24:59;3.73;72.74
64652;HTU21D;51062;45.120;37.660;2024-02-21T06:27:25;3.83;72.84
64652;HTU21D;51062;45.120;37.660;2024-02-21T06:29:51;3.99;72.82
64652;HTU21D;51062;45.120;37.660;2024-02-21T06:32:17;4.12;72.70
64652;HTU21D;51062;45.120;37.660;2024-02-21T06:34:43;4.22;72.64
64652;HTU21D;51062;45.120;37.660;2024-02-21T06:37:09;4.45;72.57
64652;HTU21D;51062;45.120;37.660;2024-02-21T06:39:35;4.95;72.86
64652;HTU21D;51062;45.120;37.660;2024-02-21T06:42:03;5.38;72.31
64652;HTU21D;51062;45.120;37.660;2024-02-21T06:44:29;5.64;71.78
64652;HTU21D;51062;45.120;37.660;2024-02-21T06:46:55;5.87;71.80
64652;HTU21D;51062;45.120;37.660;2024-02-21T06:49:21;6.11;71.46
64652;HTU21D;51062;45.120;37.660;2024-02-21T06:51:47;6.29;71.41
64652;HTU21D;51062;45.120;37.660;2024-02-21T06:54:14;6.43;71.17
64652;HTU21D;51062;45.120;37.660;2024-02-21T06:56:40;6.46;71.05
64652;HTU21D;51062;45.120;37.660;2024-02-21T06:59:06;6.43;71.07
64652;HTU21D;51062;45.120;37.660;2024-02-21T07:01:33;6.40;71.19
64652;HTU21D;51062;45.120;37.660;2024-02-21T07:03:59;6.38;71.26
64652;HTU21D;51062;45.120;37.660;2024-02-21T07:06:26;6.46;71.55
64652;HTU21D;51062;45.120;37.660;2024-02-21T07:08:55;6.57;71.29
64652;HTU21D;51062;45.120;37.660;2024-02-21T07:11:20;6.52;71.14
64652;HTU21D;51062;45.120;37.660;2024-02-21T07:13:47;6.73;71.04
64652;HTU21D;51062;45.120;37.660;2024-02-21T07:16:15;7.01;70.92
64652;HTU21D;51062;45.120;37.660;2024-02-21T07:18:41;7.34;70.64
64652;HTU21D;51062;45.120;37.660;2024-02-21T07:21:07;7.43;70.16
64652;HTU21D;51062;45.120;37.660;2024-02-21T07:23:33;7.42;70.26
64652;HTU21D;51062;45.120;37.660;2024-02-21T07:25:59;7.40;70.30
64652;HTU21D;51062;45.120;37.660;2024-02-21T07:28:25;7.37;70.29
64652;HTU21D;51062;45.120;37.660;2024-02-21T07:30:51;7.73;69.94
64652;HTU21D;51062;45.120;37.660;2024-02-21T07:33:17;8.03;69.41
64652;HTU21D;51062;45.120;37.660;2024-02-21T07:35:43;8.33;68.87
64652;HTU21D;51062;45.120;37.660;2024-02-21T07:38:10;8.43;68.64
64652;HTU21D;51062;45.120;37.660;2024-02-21T07:40:38;8.42;68.67
64652;HTU21D;51062;45.120;37.660;2024-02-21T07:43:03;8.48;68.68
64652;HTU21D;51062;45.120;37.660;2024-02-21T07:45:29;8.51;68.62
64652;HTU21D;51062;45.120;37.660;2024-02-21T07:47:55;8.45;68.55
64652;HTU21D;51062;45.120;37.660;2024-02-21T07:50:21;8.37;68.39
64652;HTU21D;51062;45.120;37.660;2024-02-21T07:52:47;8.38;68.18
64652;HTU21D;51062;45.120;37.660;2024-02-21T07:55:13;8.36;68.04
64652;HTU21D;51062;45.120;37.660;2024-02-21T07:57:39;8.36;67.68
64652;HTU21D;51062;45.120;37.660;2024-02-21T08:00:05;8.31;67.59
64652;HTU21D;51062;45.120;37.660;2024-02-21T08:02:38;8.21;67.53
64652;HTU21D;51062;45.120;37.660;2024-02-21T08:05:04;8.15;67.79
64652;HTU21D;51062;45.120;37.660;2024-02-21T08:07:30;8.13;68.03
64652;HTU21D;51062;45.120;37.660;2024-02-21T08:09:56;8.13;68.12
64652;HTU21D;51062;45.120;37.660;2024-02-21T08:12:22;8.26;68.34
64652;HTU21D;51062;45.120;37.660;2024-02-21T08:14:48;8.42;67.84
64652;HTU21D;51062;45.120;37.660;2024-02-21T08:17:14;8.47;67.40
64652;HTU21D;51062;45.120;37.660;2024-02-21T08:19:40;8.41;67.52
64652;HTU21D;51062;45.120;37.660;2024-02-21T08:22:06;8.47;67.62
64652;HTU21D;51062;45.120;37.660;2024-02-21T08:24:32;8.63;67.45
64652;HTU21D;51062;45.120;37.660;2024-02-21T08:26:58;8.72;67.07
64652;HTU21D;51062;45.120;37.660;2024-02-21T08:29:24;8.91;66.91
64652;HTU21D;51062;45.120;37.660;2024-02-21T08:31:50;9.18;66.57
64652;HTU21D;51062;45.120;37.660;2024-02-21T08:34:16;9.37;66.17
64652;HTU21D;51062;45.120;37.660;2024-02-21T08:36:44;9.41;65.65
64652;HTU21D;51062;45.120;37.660;2024-02-21T08:39:09;9.34;65.46
64652;HTU21D;51062;45.120;37.660;2024-02-21T08:41:36;9.35;65.32
64652;HTU21D;51062;45.120;37.660;2024-02-21T08:44:02;9.27;65.07
64652;HTU21D;51062;45.120;37.660;2024-02-21T08:46:28;9.11;65.01
64652;HTU21D;51062;45.120;37.660;2024-02-21T08:48:54;9.03;65.08
64652;HTU21D;51062;45.120;37.660;2024-02-21T08:51:20;8.95;65.33
64652;HTU21D;51062;45.120;37.660;2024-02-21T08:53:47;8.86;65.59
64652;HTU21D;51062;45.120;37.660;2024-02-21T08:56:12;8.79;65.70
64652;HTU21D;51062;45.120;37.660;2024-02-21T08:58:39;8.76;65.84
64652;HTU21D;51062;45.120;37.660;2024-02-21T09:01:05;8.73;65.78
64652;HTU21D;51062;45.120;37.660;2024-02-21T09:03:38;8.67;65.50
64652;HTU21D;51062;45.120;37.660;2024-02-21T09:06:05;8.67;65.29
64652;HTU21D;51062;45.120;37.660;2024-02-21T09:08:31;8.75;65.14
64652;HTU21D;51062;45.120;37.660;2024-02-21T09:10:58;8.77;65.21
64652;HTU21D;51062;45.120;37.660;2024-02-21T09:13:23;8.85;65.35
64652;HTU21D;51062;45.120;37.660;2024-02-21T09:15:49;8.91;65.08
64652;HTU21D;51062;45.120;37.660;2024-02-21T09:18:16;8.82;64.97
64652;HTU21D;51062;45.120;37.660;2024-02-21T09:20:42;8.73;65.10
64652;HTU21D;51062;45.120;37.660;2024-02-21T09:23:08;8.73;65.13
64652;HTU21D;51062;45.120;37.660;2024-02-21T09:25:34;8.76;64.96
64652;HTU21D;51062;45.120;37.660;2024-02-21T09:28:01;8.71;64.92
64652;HTU21D;51062;45.120;37.660;2024-02-21T09:30:27;8.67;65.04
64652;HTU21D;51062;45.120;37.660;2024-02-21T09:32:53;8.66;64.94
64652;HTU21D;51062;45.120;37.660;2024-02-21T09:35:19;8.66;64.97
64652;HTU21D;51062;45.120;37.660;2024-02-21T09:37:48;8.62;65.06
64652;HTU21D;51062;45.120;37.660;2024-02-21T09:40:15;8.56;65.23
64652;HTU21D;51062;45.120;37.660;2024-02-21T09:42:42;8.55;65.34
64652;HTU21D;51062;45.120;37.660;2024-02-21T09:45:19;8.61;65.26
64652;HTU21D;51062;45.120;37.660;2024-02-21T09:50:30;8.86;65.01
64652;HTU21D;51062;45.120;37.660;2024-02-21T09:52:59;8.88;64.85
64652;HTU21D;51062;45.120;37.660;2024-02-21T09:55:27;8.90;64.76
64652;HTU21D;51062;45.120;37.660;2024-02-21T09:57:55;8.86;64.81
64652;HTU21D;51062;45.120;37.660;2024-02-21T10:00:25;8.83;64.80
64652;HTU21D;51062;45.120;37.660;2024-02-21T10:02:50;8.87;64.72
64652;HTU21D;51062;45.120;37.660;2024-02-21T10:05:16;8.85;64.70
64652;HTU21D;51062;45.120;37.660;2024-02-21T10:07:43;8.74;64.66
64652;HTU21D;51062;45.120;37.660;2024-02-21T10:10:09;8.61;64.86
64652;HTU21D;51062;45.120;37.660;2024-02-21T10:12:35;8.51;64.96
64652;HTU21D;51062;45.120;37.660;2024-02-21T10:15:02;8.46;64.98
64652;HTU21D;51062;45.120;37.660;2024-02-21T10:17:28;8.45;64.91
64652;HTU21D;51062;45.120;37.660;2024-02-21T10:19:54;8.46;64.95
64652;HTU21D;51062;45.120;37.660;2024-02-21T10:22:20;8.51;65.08
64652;HTU21D;51062;45.120;37.660;2024-02-21T10:24:51;8.59;64.85
64652;HTU21D;51062;45.120;37.660;2024-02-21T10:27:17;8.61;64.59
64652;HTU21D;51062;45.120;37.660;2024-02-21T10:29:43;8.59;64.25
64652;HTU21D;51062;45.120;37.660;2024-02-21T10:32:14;8.56;64.27
64652;HTU21D;51062;45.120;37.660;2024-02-21T10:34:41;8.48;63.98
64652;HTU21D;51062;45.120;37.660;2024-02-21T10:37:08;8.36;64.00
64652;HTU21D;51062;45.120;37.660;2024-02-21T10:39:37;8.32;64.29
64652;HTU21D;51062;45.120;37.660;2024-02-21T10:42:03;8.28;64.43
64652;HTU21D;51062;45.120;37.660;2024-02-21T10:44:30;8.23;64.59
64652;HTU21D;51062;45.120;37.660;2024-02-21T10:46:57;8.22;64.42
64652;HTU21D;51062;45.120;37.660;2024-02-21T10:49:23;8.20;64.56
64652;HTU21D;51062;45.120;37.660;2024-02-21T10:54:45;8.19;64.56
64652;HTU21D;51062;45.120;37.660;2024-02-21T10:57:12;8.15;63.98
64652;HTU21D;51062;45.120;37.660;2024-02-21T10:59:39;8.11;64.19
64652;HTU21D;51062;45.120;37.660;2024-02-21T11:02:05;8.09;63.98
64652;HTU21D;51062;45.120;37.660;2024-02-21T11:04:31;8.07;64.14
64652;HTU21D;51062;45.120;37.660;2024-02-21T11:07:02;8.08;64.14
64652;HTU21D;51062;45.120;37.660;2024-02-21T11:09:29;8.04;63.79
64652;HTU21D;51062;45.120;37.660;2024-02-21T11:11:57;7.99;64.04
64652;HTU21D;51062;45.120;37.660;2024-02-21T11:14:25;7.99;64.23
64652;HTU21D;51062;45.120;37.660;2024-02-21T11:16:52;8.02;64.08
64652;HTU21D;51062;45.120;37.660;2024-02-21T11:21:44;8.01;64.27
64652;HTU21D;51062;45.120;37.660;2024-02-21T11:24:10;8.01;64.47
64652;HTU21D;51062;45.120;37.660;2024-02-21T11:26:39;8.02;64.52
64652;HTU21D;51062;45.120;37.660;2024-02-21T11:29:07;7.99;64.37
64652;HTU21D;51062;45.120;37.660;2024-02-21T11:31:43;7.93;64.38
64652;HTU21D;51062;45.120;37.660;2024-02-21T11:34:10;7.91;64.43
64652;HTU21D;51062;45.120;37.660;2024-02-21T11:36:46;7.86;64.46
64652;HTU21D;51062;45.120;37.660;2024-02-21T11:39:13;7.87;64.50
64652;HTU21D;51062;45.120;37.660;2024-02-21T11:41:38;7.90;64.55
64652;HTU21D;51062;45.120;37.660;2024-02-21T11:44:04;7.88;64.18
64652;HTU21D;51062;45.120;37.660;2024-02-21T11:46:30;7.83;64.11
64652;HTU21D;51062;45.120;37.660;2024-02-21T11:48:56;7.79;64.32
64652;HTU21D;51062;45.120;37.660;2024-02-21T11:51:26;7.79;64.39
64652;HTU21D;51062;45.120;37.660;2024-02-21T11:53:52;7.81;64.21
64652;HTU21D;51062;45.120;37.660;2024-02-21T11:56:20;7.79;64.34
64652;HTU21D;51062;45.120;37.660;2024-02-21T11:58:46;7.79;64.34
64652;HTU21D;51062;45.120;37.660;2024-02-21T12:01:15;7.73;64.28
64652;HTU21D;51062;45.120;37.660;2024-02-21T12:03:42;7.71;64.48
64652;HTU21D;51062;45.120;37.660;2024-02-21T12:06:11;7.73;64.41
64652;HTU21D;51062;45.120;37.660;2024-02-21T12:08:41;7.69;64.10
64652;HTU21D;51062;45.120;37.660;2024-02-21T12:11:17;7.62;64.19
64652;HTU21D;51062;45.120;37.660;2024-02-21T12:13:44;7.59;64.25
64652;HTU21D;51062;45.120;37.660;2024-02-21T12:16:14;7.59;64.19
64652;HTU21D;51062;45.120;37.660;2024-02-21T12:18:41;7.55;64.14
64652;HTU21D;51062;45.120;37.660;2024-02-21T12:21:07;7.53;64.28
64652;HTU21D;51062;45.120;37.660;2024-02-21T12:23:33;7.55;64.43
64652;HTU21D;51062;45.120;37.660;2024-02-21T12:25:59;7.58;64.41
64652;HTU21D;51062;45.120;37.660;2024-02-21T12:28:27;7.58;64.38
64652;HTU21D;51062;45.120;37.660;2024-02-21T12:30:53;7.57;64.05
64652;HTU21D;51062;45.120;37.660;2024-02-21T12:33:20;7.49;64.08
64652;HTU21D;51062;45.120;37.660;2024-02-21T12:35:47;7.44;64.10
64652;HTU21D;51062;45.120;37.660;2024-02-21T12:38:14;7.40;64.14
64652;HTU21D;51062;45.120;37.660;2024-02-21T12:40:40;7.29;64.05
64652;HTU21D;51062;45.120;37.660;2024-02-21T12:43:06;7.19;64.19
64652;HTU21D;51062;45.120;37.660;2024-02-21T12:45:32;7.16;64.38
64652;HTU21D;51062;45.120;37.660;2024-02-21T12:48:00;7.16;64.34
64652;HTU21D;51062;45.120;37.660;2024-02-21T12:50:28;7.14;64.44
64652;HTU21D;51062;45.120;37.660;2024-02-21T12:52:58;7.18;64.56
64652;HTU21D;51062;45.120;37.660;2024-02-21T12:55:24;7.17;64.43
64652;HTU21D;51062;45.120;37.660;2024-02-21T12:57:53;7.14;64.34
64652;HTU21D;51062;45.120;37.660;2024-02-21T13:00:25;7.09;64.37
64652;HTU21D;51062;45.120;37.660;2024-02-21T13:02:54;7.04;64.46
64652;HTU21D;51062;45.120;37.660;2024-02-21T13:05:20;7.00;64.48
64652;HTU21D;51062;45.120;37.660;2024-02-21T13:07:47;6.97;64.54
64652;HTU21D;51062;45.120;37.660;2024-02-21T13:10:15;6.90;64.51
64652;HTU21D;51062;45.120;37.660;2024-02-21T13:12:41;6.82;64.53
64652;HTU21D;51062;45.120;37.660;2024-02-21T13:15:08;6.75;64.62
64652;HTU21D;51062;45.120;37.660;2024-02-21T13:17:40;6.66;64.72
64652;HTU21D;51062;45.120;37.660;2024-02-21T13:20:08;6.61;64.75
64652;HTU21D;51062;45.120;37.660;2024-02-21T13:22:36;6.56;64.80
64652;HTU21D;51062;45.120;37.660;2024-02-21T13:25:02;6.53;64.93
64652;HTU21D;51062;45.120;37.660;2024-02-21T13:27:28;6.52;65.02
64652;HTU21D;51062;45.120;37.660;2024-02-21T13:29:55;6.50;65.01
64652;HTU21D;51062;45.120;37.660;2024-02-21T13:32:21;6.48;64.96
64652;HTU21D;51062;45.120;37.660;2024-02-21T13:34:47;6.42;64.99
64652;HTU21D;51062;45.120;37.660;2024-02-21T13:37:13;6.40;65.08
64652;HTU21D;51062;45.120;37.660;2024-02-21T13:39:40;6.39;65.14
64652;HTU21D;51062;45.120;37.660;2024-02-21T13:42:06;6.37;65.09
64652;HTU21D;51062;45.120;37.660;2024-02-21T13:44:32;6.34;65.11
64652;HTU21D;51062;45.120;37.660;2024-02-21T13:46:58;6.31;65.09
64652;HTU21D;51062;45.120;37.660;2024-02-21T13:49:24;6.27;65.17
64652;HTU21D;51062;45.120;37.660;2024-02-21T13:51:50;6.27;65.25
64652;HTU21D;51062;45.120;37.660;2024-02-21T13:54:16;6.27;65.25
64652;HTU21D;51062;45.120;37.660;2024-02-21T13:56:45;6.27;65.22
64652;HTU21D;51062;45.120;37.660;2024-02-21T13:59:13;6.24;65.13
64652;HTU21D;51062;45.120;37.660;2024-02-21T14:01:39;6.20;65.06
64652;HTU21D;51062;45.120;37.660;2024-02-21T14:04:05;6.16;65.12
64652;HTU21D;51062;45.120;37.660;2024-02-21T14:06:31;6.12;65.11
64652;HTU21D;51062;45.120;37.660;2024-02-21T14:08:57;6.10;65.17
64652;HTU21D;51062;45.120;37.660;2024-02-21T14:11:23;6.05;65.16
64652;HTU21D;51062;45.120;37.660;2024-02-21T14:13:50;5.98;65.17
64652;HTU21D;51062;45.120;37.660;2024-02-21T14:16:16;5.94;65.18
64652;HTU21D;51062;45.120;37.660;2024-02-21T14:18:42;5.89;65.24
64652;HTU21D;51062;45.120;37.660;2024-02-21T14:21:09;5.84;65.33
64652;HTU21D;51062;45.120;37.660;2024-02-21T14:23:38;5.80;65.40
64652;HTU21D;51062;45.120;37.660;2024-02-21T14:26:04;5.76;65.45
64652;HTU21D;51062;45.120;37.660;2024-02-21T14:28:30;0.00;65.46
64652;HTU21D;51062;45.120;37.660;2024-02-21T14:30:57;5.67;65.49
64652;HTU21D;51062;45.120;37.660;2024-02-21T14:33:23;5.64;65.53
64652;HTU21D;51062;45.120;37.660;2024-02-21T14:35:50;5.61;65.56
64652;HTU21D;51062;45.120;37.660;2024-02-21T14:38:17;5.57;65.62
64652;HTU21D;51062;45.120;37.660;2024-02-21T14:40:43;5.54;65.60
64652;HTU21D;51062;45.120;37.660;2024-02-21T14:43:09;5.51;65.62
64652;HTU21D;51062;45.120;37.660;2024-02-21T14:45:36;5.49;65.65
64652;HTU21D;51062;45.120;37.660;2024-02-21T14:48:04;5.47;65.67
64652;HTU21D;51062;45.120;37.660;2024-02-21T14:50:31;5.43;65.68
64652;HTU21D;51062;45.120;37.660;2024-02-21T14:53:06;5.42;65.66
64652;HTU21D;51062;45.120;37.660;2024-02-21T14:55:35;5.38;65.70
64652;HTU21D;51062;45.120;37.660;2024-02-21T14:58:05;5.34;65.75
64652;HTU21D;51062;45.120;37.660;2024-02-21T15:00:33;5.31;65.78
64652;HTU21D;51062;45.120;37.660;2024-02-21T15:03:02;5.26;65.84
64652;HTU21D;51062;45.120;37.660;2024-02-21T15:05:30;5.24;65.90
64652;HTU21D;51062;45.120;37.660;2024-02-21T15:07:59;5.20;65.95
64652;HTU21D;51062;45.120;37.660;2024-02-21T15:10:27;5.17;65.99
64652;HTU21D;51062;45.120;37.660;2024-02-21T15:12:54;5.15;66.04
64652;HTU21D;51062;45.120;37.660;2024-02-21T15:15:26;5.13;66.09
64652;HTU21D;51062;45.120;37.660;2024-02-21T15:17:59;5.11;66.13
64652;HTU21D;51062;45.120;37.660;2024-02-21T15:20:30;5.11;66.18